Aviation Digital Data Service (ADDS)

Output produced by METARs form (1037 UTC 22 October 2018)
found at http://www.aviationweather.gov/metar/data/
 
RJTT 221000Z 07015KT 9999 FEW030 BKN/// 19/13 Q1023 NOSIG RMK 1CU030 A3023
TAF RJTT 220505Z 2206/2312 12012KT 9999 FEW030 
     BECMG 2214/2216 36008KT 
     BECMG 2303/2306 08010KT 
     BECMG 2309/2312 04008KT
       
RJAA 221000Z 05006KT 010V100 9999 FEW030 SCT/// 17/11 Q1024 NOSIG RMK 1CU030 A3024
TAF AMD RJAA 220726Z 2207/2312 02007KT 9999 FEW025 
     BECMG 2300/2303 08008KT 
     BECMG 2306/2309 04007KT
       
RJGG 221000Z 13007KT 9999 FEW030 BKN/// 20/10 Q1022 NOSIG
TAF RJGG 220519Z 2206/2312 14008KT 9999 FEW030 
     BECMG 2216/2218 06006KT 
     BECMG 2300/2303 13010KT
       
RJBB 221000Z 17005KT 140V200 9999 FEW030 BKN070 BKN/// 20/15 Q1021 NOSIG
TAF RJBB 220505Z 2206/2312 23006KT 9999 FEW030 
     BECMG 2214/2216 11006KT 
     BECMG 2300/2303 05010KT
       
RJOO 221000Z 07007KT 9999 FEW030 BKN/// 20/10 Q1021 RMK 1CU030 A3016
TAF RJOO 220506Z 2206/2312 22005KT 9999 FEW030 
     BECMG 2209/2211 32005KT 
     BECMG 2221/2300 07005KT
       
RJFF 221000Z VRB03KT CAVOK 19/10 Q1019 NOSIG RMK A3010
TAF RJFF 220512Z 2206/2312 13004KT 9999 FEW040 
     BECMG 2303/2306 01005KT 
     BECMG 2309/2312 13004KT
       
ROAH 221000Z 06008KT 9999 -RA FEW030 BKN050 24/19 Q1015 RMK 1CU030 6SC050 A2998
TAF ROAH 220505Z 2206/2312 12008KT 9999 FEW025 SCT035 
     BECMG 2303/2306 02008KT
       
RJCC 221000Z VRB02KT 9999 FEW030 09/06 Q1024 RMK 1CU030 A3026
TAF RJCC 220505Z 2206/2312 17006KT 9999 FEW030 
     TEMPO 2300/2303 4000 -SHRA BR 
     BECMG 2303/2306 15016KT
       
RJEC 221000Z 18005KT 9999 FEW025 05/04 Q1024
TAF RJEC 220510Z 2206/2312 35005KT 9999 FEW030 
     BECMG 2208/2210 17007KT
       
RJCK 221000Z 08003KT 9999 FEW015 BKN030 09/06 Q1026
TAF RJCK 220512Z 2206/2312 17007KT 9999 FEW015 BKN030 
     BECMG 2209/2211 01005KT 
     TEMPO 2215/2221 3000 BR FEW003 BKN005 
     BECMG 2300/2303 17010KT
       
RJSA 221000Z 21003KT 9999 FEW030 BKN/// 06/05 Q1024
TAF RJSA 220511Z 2206/2312 26004KT 9999 FEW030
       
RJSK 221000Z 12003KT 090V160 CAVOK 12/07 Q1023
TAF RJSK 220517Z 2206/2312 28004KT 9999 FEW030 
     BECMG 2208/2210 12005KT
       
RJSN 221000Z 09002KT CAVOK 16/10 Q1022
TAF RJSN 220505Z 2206/2312 02010KT 9999 FEW040 
     BECMG 2209/2211 16010KT
       
RJSF 221000Z 11007KT 070V130 9999 FEW050 13/04 Q1024
TAF RJSF 220514Z 2206/2312 18004KT 9999 FEW030
       
RJSS 221000Z 30004KT 9999 FEW030 13/08 Q1024
TAF RJSS 220505Z 2206/2312 12007KT 9999 FEW040 
     BECMG 2209/2211 30004KT 
     BECMG 2300/2303 14010KT
       
RJOK 221000Z 04002KT 9999 FEW030 SCT045 BKN/// 18/13 Q1021
TAF RJOK 220507Z 2206/2312 17005KT 9999 FEW025 BKN045 
     BECMG 2208/2210 35005KT 
     TEMPO 2221/2300 4000 SHRA BR
       
RJOM 221000Z 12007KT 9999 FEW060 SCT160 19/09 Q1020
TAF RJOM 220507Z 2206/2312 35007KT 9999 FEW030 
     BECMG 2208/2210 12006KT 
     BECMG 2300/2303 35005KT 
     BECMG 2309/2312 12007KT
       
RJFO 221000Z 13008KT 9999 FEW030 BKN180 BKN/// 21/16 Q1019
TAF RJFO 220506Z 2206/2312 13008KT 9999 FEW030
       
RJFU 221000Z 10004KT 9999 FEW050 BKN120 BKN150 19/16 Q1019
TAF RJFU 220506Z 2206/2312 14004KT 9999 FEW030 SCT050 
     BECMG 2211/2213 32005KT 
     BECMG 2215/2217 10003KT 
     BECMG 2303/2306 33006KT
       
RJFT 221000Z 35003KT 310V040 9999 FEW045 BKN110 18/12 Q1019
TAF RJFT 220510Z 2206/2312 06005KT 9999 FEW030 
     BECMG 2300/2303 30003KT 
     BECMG 2306/2309 06005KT
       
RJFK 221000Z 10006KT 9999 FEW030 BKN150 18/14 Q1019 RMK 1CU030 7AC150 A3010
TAF RJFK 220510Z 2206/2312 08005KT 9999 FEW020 SCT040 
     BECMG 2212/2214 35004KT 
     BECMG 2221/2300 13005KT 
     BECMG 2306/2309 03003KT
       
RJFM 221000Z 32005KT 9999 FEW030 BKN190 21/17 Q1019
TAF RJFM 220508Z 2206/2312 03008KT 9999 FEW030 SCT040 
     BECMG 2208/2210 28006KT 
     BECMG 2300/2303 02005KT 
     BECMG 2309/2312 29007KT